createdAt,value
2024-05-09T00:02:42.857Z,27.30
2024-05-09T00:05:28.563Z,24.45
2024-05-09T00:08:14.179Z,23.38
2024-05-09T00:10:59.681Z,23.95
2024-05-09T00:13:45.263Z,26.48
2024-05-09T00:16:30.724Z,23.63
2024-05-09T00:19:16.594Z,25.02
2024-05-09T00:22:03.387Z,24.83
2024-05-09T00:24:48.733Z,21.15
2024-05-09T00:27:34.814Z,21.08
2024-05-09T00:30:27.970Z,20.90
2024-05-09T00:33:18.988Z,19.67
2024-05-09T00:36:05.012Z,21.27
2024-05-09T00:38:50.437Z,20.35
2024-05-09T00:41:36.296Z,24.58
2024-05-09T00:44:21.787Z,26.42
2024-05-09T00:47:07.865Z,23.10
2024-05-09T00:49:53.690Z,24.13
2024-05-09T00:52:39.538Z,24.48
2024-05-09T00:55:25.201Z,24.67
2024-05-09T00:58:12.163Z,28.45
2024-05-09T01:00:59.461Z,29.20
2024-05-09T01:03:47.280Z,29.17
2024-05-09T01:06:34.276Z,23.98
2024-05-09T01:09:19.770Z,24.52
2024-05-09T01:12:05.884Z,29.67
2024-05-09T01:14:51.453Z,30.98
2024-05-09T01:17:37.384Z,24.75
2024-05-09T01:20:31.996Z,24.65
2024-05-09T01:23:25.715Z,21.60
2024-05-09T01:26:11.421Z,21.60
2024-05-09T01:28:57.061Z,22.83
2024-05-09T01:31:42.707Z,23.73
2024-05-09T01:34:28.358Z,25.23
2024-05-09T01:37:13.862Z,26.50
2024-05-09T01:39:59.632Z,22.58
2024-05-09T01:42:45.323Z,21.30
2024-05-09T01:45:31.099Z,21.33
2024-05-09T01:48:17.121Z,20.40
2024-05-09T01:51:02.458Z,20.17
2024-05-09T01:53:48.335Z,21.02
2024-05-09T01:56:33.785Z,21.58
2024-05-09T01:59:19.264Z,21.00
2024-05-09T02:02:05.024Z,20.25
2024-05-09T02:04:50.520Z,20.77
2024-05-09T02:07:36.734Z,19.85
2024-05-09T02:10:26.581Z,19.95
2024-05-09T02:13:17.504Z,20.25
2024-05-09T02:16:02.947Z,19.58
2024-05-09T02:18:48.517Z,21.20
2024-05-09T02:21:34.487Z,20.17
2024-05-09T02:24:20.011Z,24.75
2024-05-09T02:27:05.733Z,20.30
2024-05-09T02:29:51.338Z,21.80
2024-05-09T02:32:36.531Z,21.88
2024-05-09T02:35:22.231Z,26.58
2024-05-09T02:38:09.360Z,22.02
2024-05-09T02:40:54.988Z,20.92
2024-05-09T02:43:40.565Z,22.45
2024-05-09T02:46:26.122Z,20.77
2024-05-09T02:49:12.043Z,22.10
2024-05-09T02:51:57.195Z,22.92
2024-05-09T02:54:42.849Z,21.88
2024-05-09T02:57:28.404Z,20.83
2024-05-09T03:00:19.082Z,19.13
2024-05-09T03:03:13.633Z,29.10
2024-05-09T03:06:01.886Z,22.33
2024-05-09T03:08:47.489Z,22.55
2024-05-09T03:11:33.166Z,20.23
2024-05-09T03:14:19.095Z,18.92
2024-05-09T03:17:04.887Z,19.48
2024-05-09T03:19:50.411Z,27.42
2024-05-09T03:22:35.908Z,19.65
2024-05-09T03:25:21.607Z,20.88
2024-05-09T03:28:07.514Z,22.40
2024-05-09T03:30:53.369Z,19.45
2024-05-09T03:33:39.275Z,21.08
2024-05-09T03:36:25.032Z,20.60
2024-05-09T03:39:11.177Z,23.35
2024-05-09T03:41:56.515Z,28.40
2024-05-09T03:44:42.227Z,34.72
2024-05-09T03:47:28.117Z,24.23
2024-05-09T03:50:21.991Z,21.17
2024-05-09T03:53:12.394Z,27.15
2024-05-09T03:55:58.161Z,33.10
2024-05-09T03:58:43.963Z,35.90
2024-05-09T04:01:32.563Z,16.25
2024-05-09T04:04:17.892Z,22.83
2024-05-09T04:07:03.512Z,20.33
2024-05-09T04:09:49.039Z,17.33
2024-05-09T04:12:35.185Z,25.05
2024-05-09T04:15:20.765Z,39.35
2024-05-09T04:18:06.389Z,24.65
2024-05-09T04:20:51.960Z,19.65
2024-05-09T04:23:38.066Z,22.85
2024-05-09T04:26:23.593Z,17.58
2024-05-09T04:29:09.248Z,23.25
2024-05-09T04:31:54.897Z,24.60
2024-05-09T04:34:40.461Z,16.80
2024-05-09T04:37:26.446Z,18.88
2024-05-09T04:40:21.024Z,20.77
2024-05-09T04:43:14.629Z,28.33
2024-05-09T04:46:00.171Z,14.77
2024-05-09T04:48:45.910Z,14.85
2024-05-09T04:51:31.393Z,20.67
2024-05-09T04:54:26.470Z,13.20
2024-05-09T04:57:19.585Z,18.70
2024-05-09T05:00:11.535Z,18.20
2024-05-09T05:03:00.080Z,28.13
2024-05-09T05:05:46.168Z,19.38
2024-05-09T05:08:32.199Z,19.15
2024-05-09T05:11:17.783Z,17.73
2024-05-09T05:14:03.394Z,18.60
2024-05-09T05:16:49.030Z,18.65
2024-05-09T05:19:34.760Z,17.67
2024-05-09T05:22:20.364Z,18.40
2024-05-09T05:25:06.177Z,18.27
2024-05-09T05:27:51.879Z,17.08
2024-05-09T05:30:38.006Z,18.48
2024-05-09T05:33:23.616Z,19.15
2024-05-09T05:36:10.099Z,18.80
2024-05-09T05:38:55.341Z,20.48
2024-05-09T05:41:40.710Z,20.15
2024-05-09T05:44:26.393Z,21.15
2024-05-09T05:50:59.442Z,21.63
2024-05-09T05:53:46.384Z,20.70
2024-05-09T05:56:31.607Z,20.75
2024-05-09T05:59:25.653Z,20.50
2024-05-09T06:04:56.837Z,21.77
2024-05-09T06:07:51.793Z,21.23
2024-05-09T06:10:39.912Z,22.38
2024-05-09T06:13:26.563Z,19.08
2024-05-09T06:16:12.237Z,21.58
2024-05-09T06:18:57.976Z,21.02
2024-05-09T06:21:43.390Z,20.92
2024-05-09T06:24:28.900Z,21.70
2024-05-09T06:27:13.937Z,20.42
2024-05-09T06:29:59.636Z,19.42
2024-05-09T06:32:45.243Z,19.08
2024-05-09T06:35:31.002Z,18.48
2024-05-09T06:38:16.292Z,18.67
2024-05-09T06:41:01.786Z,20.25
2024-05-09T06:43:47.453Z,19.63
2024-05-09T06:46:33.019Z,18.17
2024-05-09T06:49:18.577Z,17.35
2024-05-09T06:52:04.022Z,15.20
2024-05-09T06:54:49.418Z,14.52
2024-05-09T06:57:35.045Z,11.57
2024-05-09T07:00:27.531Z,11.55
2024-05-09T07:03:21.096Z,12.45
2024-05-09T07:06:06.335Z,10.60
2024-05-09T07:08:52.644Z,9.05
2024-05-09T07:11:38.259Z,11.38
2024-05-09T07:14:23.643Z,11.10
2024-05-09T07:17:09.453Z,9.60
2024-05-09T07:19:54.854Z,11.20
2024-05-09T07:22:40.417Z,10.93
2024-05-09T07:25:25.958Z,8.95
2024-05-09T07:28:13.420Z,9.07
2024-05-09T07:30:58.739Z,9.65
2024-05-09T07:33:44.317Z,8.80
2024-05-09T07:36:29.787Z,6.25
2024-05-09T07:39:15.373Z,6.95
2024-05-09T07:42:00.949Z,6.40
2024-05-09T07:44:46.653Z,4.03
2024-05-09T07:48:57.500Z,4.97
2024-05-09T07:53:39.730Z,3.65
2024-05-09T07:56:30.067Z,3.83
2024-05-09T07:59:15.671Z,4.07
2024-05-09T08:02:00.916Z,3.30
2024-05-09T08:04:46.555Z,2.78
2024-05-09T08:07:34.882Z,3.67
2024-05-09T08:10:24.528Z,3.55
2024-05-09T08:13:12.790Z,3.92
2024-05-09T08:15:58.334Z,4.50
2024-05-09T08:18:43.977Z,4.35
2024-05-09T08:21:30.022Z,3.47
2024-05-09T08:24:15.259Z,3.58
2024-05-09T08:27:00.948Z,4.25
2024-05-09T08:29:46.710Z,3.63
2024-05-09T08:32:34.933Z,3.78
2024-05-09T08:35:20.438Z,3.70
2024-05-09T08:38:07.017Z,3.60
2024-05-09T08:40:52.413Z,3.90
2024-05-09T08:43:40.692Z,3.58
2024-05-09T08:46:29.152Z,4.18
2024-05-09T08:49:16.325Z,3.40
2024-05-09T08:52:01.878Z,3.17
2024-05-09T08:54:47.598Z,3.17
2024-05-09T08:57:34.835Z,2.60
2024-05-09T09:00:29.192Z,2.45
2024-05-09T09:03:22.267Z,2.42
2024-05-09T09:06:12.332Z,2.55
2024-05-09T09:08:57.709Z,2.22
2024-05-09T09:11:43.219Z,2.58
2024-05-09T09:14:28.790Z,2.35
2024-05-09T09:17:15.222Z,2.40
2024-05-09T09:20:00.688Z,2.97
2024-05-09T09:22:46.078Z,2.17
2024-05-09T09:25:32.093Z,2.63
2024-05-09T09:28:17.742Z,2.83
2024-05-09T09:31:03.906Z,2.50
2024-05-09T09:33:49.809Z,2.60
2024-05-09T09:36:36.214Z,2.58
2024-05-09T09:39:22.947Z,2.10
2024-05-09T09:42:09.920Z,2.20
2024-05-09T09:45:04.285Z,3.22
2024-05-09T09:47:53.816Z,2.45
2024-05-09T09:50:40.318Z,2.85
2024-05-09T09:53:28.132Z,2.33
2024-05-09T09:56:16.198Z,2.28
2024-05-09T09:59:03.102Z,2.42
2024-05-09T10:01:48.558Z,2.58
2024-05-09T10:04:34.215Z,2.63
2024-05-09T10:07:20.625Z,2.35
2024-05-09T10:10:07.087Z,2.28
2024-05-09T10:12:57.342Z,2.00
2024-05-09T10:15:46.728Z,2.30
2024-05-09T10:18:36.373Z,2.33
2024-05-09T10:21:21.957Z,2.30
2024-05-09T10:24:07.690Z,2.00
2024-05-09T10:26:56.069Z,2.47
2024-05-09T10:29:55.064Z,2.40
2024-05-09T10:32:41.048Z,1.70
2024-05-09T10:35:31.354Z,1.98
2024-05-09T10:38:17.642Z,1.88
2024-05-09T10:41:03.684Z,1.85
2024-05-09T10:43:49.414Z,1.77
2024-05-09T10:46:34.735Z,2.10
2024-05-09T10:49:20.551Z,2.00
2024-05-09T10:52:07.816Z,1.67
2024-05-09T10:54:54.553Z,1.55
2024-05-09T10:57:40.928Z,1.70
2024-05-09T11:00:36.092Z,1.50
2024-05-09T11:03:25.707Z,2.20
2024-05-09T11:06:11.411Z,1.67
2024-05-09T11:08:57.657Z,1.63
2024-05-09T11:11:43.365Z,1.67
2024-05-09T11:14:28.998Z,1.60
2024-05-09T11:17:14.804Z,1.83
2024-05-09T11:20:00.663Z,1.88
2024-05-09T11:22:46.393Z,1.70
2024-05-09T11:25:33.362Z,1.85
2024-05-09T11:28:18.918Z,1.80
2024-05-09T11:31:05.699Z,1.95
2024-05-09T11:33:53.904Z,1.90
2024-05-09T11:36:39.420Z,1.80
2024-05-09T11:39:25.458Z,1.92
2024-05-09T11:42:10.941Z,2.20
2024-05-09T11:44:56.413Z,1.73
2024-05-09T11:47:42.156Z,1.65
2024-05-09T11:50:32.992Z,1.80
2024-05-09T11:53:21.239Z,1.88
2024-05-09T11:56:06.801Z,1.73
2024-05-09T11:58:52.455Z,1.90
2024-05-09T12:01:38.146Z,2.13
2024-05-09T12:04:24.137Z,1.85
2024-05-09T12:07:12.752Z,1.73
2024-05-09T12:09:58.513Z,1.58
2024-05-09T12:12:44.266Z,1.67
2024-05-09T12:15:29.734Z,1.60
2024-05-09T12:18:15.372Z,1.85
2024-05-09T12:21:01.461Z,1.65
2024-05-09T12:23:46.874Z,1.40
2024-05-09T12:26:32.479Z,1.40
2024-05-09T12:29:18.152Z,1.75
2024-05-09T12:32:03.457Z,1.67
2024-05-09T12:34:49.104Z,2.13
2024-05-09T12:37:34.653Z,1.95
2024-05-09T12:40:26.853Z,2.28
2024-05-09T12:43:19.872Z,1.52
2024-05-09T12:46:05.539Z,1.63
2024-05-09T12:48:51.859Z,1.80
2024-05-09T12:51:37.664Z,1.58
2024-05-09T12:54:23.356Z,1.80
2024-05-09T12:57:08.816Z,1.58
2024-05-09T12:59:54.549Z,1.48
2024-05-09T13:02:42.352Z,2.33
2024-05-09T13:05:27.796Z,1.52
2024-05-09T13:08:13.444Z,1.67
2024-05-09T13:10:59.050Z,1.55
2024-05-09T13:13:44.655Z,1.25
2024-05-09T13:16:30.465Z,1.80
2024-05-09T13:19:15.995Z,1.23
2024-05-09T13:22:01.651Z,1.40
2024-05-09T13:24:47.282Z,1.25
2024-05-09T13:27:32.916Z,2.22
2024-05-09T13:30:28.654Z,1.50
2024-05-09T13:33:20.998Z,1.85
2024-05-09T13:36:07.668Z,1.50
2024-05-09T13:38:53.850Z,1.80
2024-05-09T13:41:39.076Z,1.55
2024-05-09T13:44:24.829Z,1.20
2024-05-09T13:47:10.179Z,1.30
2024-05-09T13:49:55.649Z,1.17
2024-05-09T13:52:41.306Z,1.00
2024-05-09T13:55:26.961Z,1.50
2024-05-09T13:58:12.612Z,1.23
2024-05-09T14:00:58.502Z,1.65
2024-05-09T14:03:44.295Z,1.55
2024-05-09T14:06:29.812Z,1.30
2024-05-09T14:09:15.314Z,1.80
2024-05-09T14:12:00.918Z,1.30
2024-05-09T14:14:46.448Z,1.50
2024-05-09T14:17:32.190Z,1.40
2024-05-09T14:20:28.251Z,1.65
2024-05-09T14:23:17.857Z,0.93
2024-05-09T14:26:03.171Z,1.30
2024-05-09T14:28:48.599Z,1.17
2024-05-09T14:31:35.535Z,1.38
2024-05-09T14:34:22.505Z,1.20
2024-05-09T14:37:08.275Z,1.30
2024-05-09T14:39:53.717Z,1.50
2024-05-09T14:42:39.340Z,1.63
2024-05-09T14:45:24.725Z,1.67
2024-05-09T14:48:11.140Z,1.63
2024-05-09T14:50:56.436Z,1.48
2024-05-09T14:53:41.972Z,1.77
2024-05-09T14:56:27.722Z,1.35
2024-05-09T14:59:13.323Z,1.20
2024-05-09T15:01:59.130Z,1.40
2024-05-09T15:04:44.859Z,1.23
2024-05-09T15:07:30.361Z,1.30
2024-05-09T15:10:23.833Z,1.40
2024-05-09T15:13:17.332Z,1.77
2024-05-09T15:16:02.964Z,2.17
2024-05-09T15:18:48.678Z,1.98
2024-05-09T15:21:34.198Z,1.50
2024-05-09T15:24:19.862Z,1.60
2024-05-09T15:27:05.342Z,1.67
2024-05-09T15:29:51.077Z,1.40
2024-05-09T15:32:36.821Z,1.42
2024-05-09T15:35:22.229Z,1.55
2024-05-09T15:38:08.861Z,1.40
2024-05-09T15:40:54.489Z,1.25
2024-05-09T15:43:40.209Z,1.60
2024-05-09T15:46:25.624Z,2.78
2024-05-09T15:49:11.218Z,1.65
2024-05-09T15:51:56.917Z,1.95
2024-05-09T15:54:41.982Z,1.60
2024-05-09T15:57:27.700Z,1.42
2024-05-09T16:00:24.393Z,1.40
2024-05-09T16:03:15.178Z,1.50
2024-05-09T16:06:01.345Z,1.10
2024-05-09T16:08:46.874Z,1.67
2024-05-09T16:11:32.613Z,1.67
2024-05-09T16:14:19.046Z,1.83
2024-05-09T16:17:05.170Z,1.55
2024-05-09T16:19:50.746Z,2.00
2024-05-09T16:22:36.256Z,1.52
2024-05-09T16:25:21.782Z,1.90
2024-05-09T16:28:10.276Z,1.67
2024-05-09T16:30:56.579Z,1.50
2024-05-09T16:33:42.164Z,1.63
2024-05-09T16:36:28.749Z,1.40
2024-05-09T16:39:14.232Z,1.30
2024-05-09T16:41:59.999Z,1.50
2024-05-09T16:44:45.426Z,2.08
2024-05-09T16:47:31.224Z,1.70
2024-05-09T16:50:22.589Z,2.00
2024-05-09T16:53:14.217Z,1.42
2024-05-09T16:55:59.865Z,1.50
2024-05-09T16:58:45.466Z,1.77
2024-05-09T17:01:30.934Z,1.38
2024-05-09T17:04:16.429Z,1.63
2024-05-09T17:07:01.967Z,1.67
2024-05-09T17:09:47.451Z,1.90
2024-05-09T17:12:32.987Z,1.58
2024-05-09T17:15:18.726Z,1.27
2024-05-09T17:18:04.439Z,1.67
2024-05-09T17:20:51.583Z,1.85
2024-05-09T17:23:36.956Z,2.13
2024-05-09T17:26:22.354Z,1.80
2024-05-09T17:29:10.911Z,1.92
2024-05-09T17:31:57.474Z,2.08
2024-05-09T17:34:43.074Z,1.92
2024-05-09T17:37:30.171Z,1.40
2024-05-09T17:40:17.353Z,1.90
2024-05-09T17:43:07.819Z,1.70
2024-05-09T17:45:54.623Z,1.25
2024-05-09T17:48:40.382Z,1.75
2024-05-09T17:51:25.768Z,2.03
2024-05-09T17:54:11.202Z,1.95
2024-05-09T17:56:56.903Z,1.98
2024-05-09T17:59:42.408Z,1.85
2024-05-09T18:02:28.280Z,1.92
2024-05-09T18:05:13.834Z,1.85
2024-05-09T18:07:59.272Z,1.63
2024-05-09T18:10:45.313Z,1.58
2024-05-09T18:13:30.500Z,1.85
2024-05-09T18:16:17.676Z,1.63
2024-05-09T18:19:03.409Z,1.70
2024-05-09T18:21:49.108Z,1.70
2024-05-09T18:24:34.875Z,2.40
2024-05-09T18:27:20.547Z,1.88
2024-05-09T18:30:09.444Z,1.70
2024-05-09T18:32:57.241Z,1.60
2024-05-09T18:35:43.067Z,1.95
2024-05-09T18:38:28.700Z,2.00
2024-05-09T18:41:14.493Z,2.25
2024-05-09T18:43:59.942Z,1.80
2024-05-09T18:46:45.666Z,2.33
2024-05-09T18:49:31.608Z,1.90
2024-05-09T18:52:16.941Z,2.13
2024-05-09T18:55:02.499Z,2.13
2024-05-09T18:57:48.158Z,2.03
2024-05-09T19:00:37.440Z,2.13
2024-05-09T19:03:25.632Z,1.77
2024-05-09T19:06:11.218Z,1.75
2024-05-09T19:08:58.599Z,2.38
2024-05-09T19:11:44.090Z,1.90
2024-05-09T19:14:29.556Z,2.10
2024-05-09T19:17:15.262Z,3.03
2024-05-09T19:20:01.230Z,3.42
2024-05-09T19:22:46.735Z,2.05
2024-05-09T19:25:32.874Z,2.30
2024-05-09T19:28:18.633Z,2.22
2024-05-09T19:31:03.956Z,2.03
2024-05-09T19:33:49.795Z,1.85
2024-05-09T19:36:35.503Z,2.20
2024-05-09T19:39:20.948Z,2.50
2024-05-09T19:42:06.683Z,1.73
2024-05-09T19:44:52.184Z,2.08
2024-05-09T19:47:38.055Z,1.92
2024-05-09T19:50:32.126Z,2.60
2024-05-09T19:53:25.047Z,8.48
2024-05-09T19:56:10.629Z,3.40
2024-05-09T19:58:56.183Z,2.38
2024-05-09T20:01:42.322Z,2.33
2024-05-09T20:04:28.092Z,2.10
2024-05-09T20:07:13.710Z,2.17
2024-05-09T20:09:59.223Z,2.25
2024-05-09T20:12:44.750Z,3.03
2024-05-09T20:15:31.317Z,2.70
2024-05-09T20:18:19.607Z,2.40
2024-05-09T20:21:06.546Z,2.08
2024-05-09T20:23:52.276Z,2.50
2024-05-09T20:26:37.929Z,2.25
2024-05-09T20:29:24.873Z,2.58
2024-05-09T20:32:10.221Z,2.30
2024-05-09T20:34:55.759Z,3.03
2024-05-09T20:37:41.455Z,3.13
2024-05-09T20:40:32.664Z,2.25
2024-05-09T20:43:21.826Z,4.57
2024-05-09T20:46:07.406Z,2.72
2024-05-09T20:48:53.307Z,2.50
2024-05-09T20:51:38.811Z,2.35
2024-05-09T20:54:24.387Z,2.20
2024-05-09T20:57:10.082Z,2.33
2024-05-09T20:59:55.681Z,1.90
2024-05-09T21:02:42.897Z,3.00
2024-05-09T21:05:28.753Z,2.60
2024-05-09T21:11:00.261Z,2.38
2024-05-09T21:13:45.687Z,2.45
2024-05-09T21:16:34.169Z,2.42
2024-05-09T21:19:19.918Z,2.28
2024-05-09T21:22:05.144Z,2.45
2024-05-09T21:24:50.842Z,2.25
2024-05-09T21:27:36.389Z,1.98
2024-05-09T21:30:32.116Z,2.38
2024-05-09T21:33:26.161Z,1.98
2024-05-09T21:36:11.642Z,2.53
2024-05-09T21:38:57.099Z,2.60
2024-05-09T21:41:42.668Z,2.45
2024-05-09T21:44:29.801Z,2.83
2024-05-09T21:47:15.148Z,2.20
2024-05-09T21:50:00.845Z,2.33
2024-05-09T21:52:46.400Z,2.15
2024-05-09T21:55:32.004Z,1.98
2024-05-09T21:58:17.729Z,2.40
2024-05-09T22:01:05.310Z,2.42
2024-05-09T22:03:51.089Z,2.13
2024-05-09T22:06:36.443Z,2.33
2024-05-09T22:09:22.106Z,2.30
2024-05-09T22:12:07.956Z,2.28
2024-05-09T22:14:53.438Z,2.55
2024-05-09T22:17:40.394Z,2.80
2024-05-09T22:20:34.282Z,3.08
2024-05-09T22:23:23.245Z,2.92
2024-05-09T22:26:09.153Z,3.08
2024-05-09T22:28:54.731Z,2.53
2024-05-09T22:31:40.488Z,2.75
2024-05-09T22:34:26.056Z,3.30
2024-05-09T22:37:11.722Z,2.72
2024-05-09T22:39:57.219Z,2.85
2024-05-09T22:42:42.882Z,2.28
2024-05-09T22:45:28.516Z,3.17
2024-05-09T22:48:14.193Z,3.60
2024-05-09T22:50:59.601Z,3.70
2024-05-09T22:53:45.104Z,3.63
2024-05-09T22:56:30.648Z,3.90
2024-05-09T22:59:16.509Z,4.00
2024-05-09T23:02:01.880Z,4.28
2024-05-09T23:04:47.528Z,4.15
2024-05-09T23:07:33.025Z,4.07
2024-05-09T23:10:27.312Z,3.95
2024-05-09T23:13:17.286Z,4.45
2024-05-09T23:16:03.481Z,4.35
2024-05-09T23:18:49.226Z,4.57
2024-05-09T23:21:37.875Z,4.63
2024-05-09T23:24:22.985Z,5.10
2024-05-09T23:27:08.631Z,4.20
2024-05-09T23:29:54.130Z,4.45
2024-05-09T23:32:39.798Z,5.18
2024-05-09T23:35:25.294Z,5.50
2024-05-09T23:38:10.829Z,6.43
2024-05-09T23:40:56.339Z,4.45
2024-05-09T23:43:41.789Z,5.15
2024-05-09T23:46:27.487Z,4.75
2024-05-09T23:49:12.886Z,4.68
2024-05-09T23:51:58.469Z,5.07
2024-05-09T23:54:44.128Z,5.70
2024-05-09T23:57:29.551Z,4.60
